createdAt,value
2023-03-02T00:02:13.663Z,94.94
2023-03-02T00:04:45.810Z,95.25
2023-03-02T00:07:27.944Z,95.35
2023-03-02T00:09:55.858Z,95.26
2023-03-02T00:12:27.045Z,95.18
2023-03-02T00:14:55.362Z,95.24
2023-03-02T00:17:27.951Z,95.22
2023-03-02T00:20:11.244Z,95.22
2023-03-02T00:22:41.111Z,95.20
2023-03-02T00:25:10.016Z,95.10
2023-03-02T00:27:37.944Z,95.14
2023-03-02T00:30:07.477Z,95.68
2023-03-02T00:32:35.420Z,96.01
2023-03-02T00:35:04.509Z,96.09
2023-03-02T00:37:34.515Z,96.10
2023-03-02T00:40:06.307Z,95.91
2023-03-02T00:42:34.380Z,95.75
2023-03-02T00:45:04.799Z,95.69
2023-03-02T00:47:37.212Z,95.66
2023-03-02T00:50:06.746Z,95.81
2023-03-02T00:52:35.060Z,95.95
2023-03-02T00:55:02.952Z,96.21
2023-03-02T00:57:31.476Z,96.38
2023-03-02T00:59:59.984Z,96.79
2023-03-02T01:02:33.813Z,96.33
2023-03-02T01:05:01.971Z,96.53
2023-03-02T01:07:29.889Z,96.78
2023-03-02T01:09:57.985Z,96.54
2023-03-02T01:12:25.876Z,96.60
2023-03-02T01:14:54.916Z,96.75
2023-03-02T01:17:22.980Z,96.64
2023-03-02T01:19:51.721Z,96.52
2023-03-02T01:22:20.705Z,96.37
2023-03-02T01:24:49.025Z,96.33
2023-03-02T01:27:16.955Z,96.39
2023-03-02T01:29:45.302Z,96.51
2023-03-02T01:32:13.372Z,96.37
2023-03-02T01:34:41.430Z,96.41
2023-03-02T01:37:09.324Z,96.48
2023-03-02T01:39:37.347Z,96.53
2023-03-02T01:42:05.492Z,96.80
2023-03-02T01:44:39.886Z,96.85
2023-03-02T01:47:17.312Z,96.73
2023-03-02T01:50:05.222Z,96.71
2023-03-02T01:52:39.984Z,96.67
2023-03-02T01:55:12.020Z,96.54
2023-03-02T01:57:44.484Z,96.57
2023-03-02T02:00:36.698Z,96.64
2023-03-02T02:03:21.250Z,96.65
2023-03-02T02:06:00.738Z,96.59
2023-03-02T02:08:28.802Z,96.65
2023-03-02T02:10:56.842Z,96.87
2023-03-02T02:13:25.087Z,97.22
2023-03-02T02:15:52.953Z,97.40
2023-03-02T02:18:20.898Z,97.67
2023-03-02T02:20:51.812Z,97.23
2023-03-02T02:23:33.767Z,97.19
2023-03-02T02:26:12.150Z,97.10
2023-03-02T02:28:45.016Z,97.01
2023-03-02T02:31:13.014Z,97.10
2023-03-02T02:33:46.066Z,97.19
2023-03-02T02:36:23.208Z,97.48
2023-03-02T02:38:55.956Z,97.54
2023-03-02T02:41:28.763Z,97.60
2023-03-02T02:43:57.206Z,97.82
2023-03-02T02:46:25.968Z,97.93
2023-03-02T02:48:54.458Z,97.66
2023-03-02T02:51:26.646Z,97.95
2023-03-02T02:54:02.724Z,98.29
2023-03-02T02:56:38.367Z,98.24
2023-03-02T02:59:22.852Z,98.10
2023-03-02T03:01:51.748Z,98.09
2023-03-02T03:04:26.797Z,97.92
2023-03-02T03:06:58.050Z,97.73
2023-03-02T03:09:27.581Z,97.83
2023-03-02T03:12:14.009Z,97.64
2023-03-02T03:14:43.406Z,97.77
2023-03-02T03:17:14.027Z,97.70
2023-03-02T03:19:55.217Z,97.71
2023-03-02T03:22:23.496Z,97.62
2023-03-02T03:24:51.749Z,97.62
2023-03-02T03:27:19.902Z,97.86
2023-03-02T03:29:48.463Z,98.08
2023-03-02T03:32:19.793Z,97.98
2023-03-02T03:34:48.494Z,98.03
2023-03-02T03:37:22.280Z,97.95
2023-03-02T03:39:51.134Z,98.01
2023-03-02T03:42:19.362Z,97.81
2023-03-02T03:44:47.695Z,97.94
2023-03-02T03:47:16.057Z,97.92
2023-03-02T03:49:44.604Z,98.09
2023-03-02T03:52:12.606Z,98.20
2023-03-02T03:54:40.747Z,98.32
2023-03-02T03:57:10.749Z,98.40
2023-03-02T03:59:38.822Z,98.31
2023-03-02T04:02:07.043Z,98.13
2023-03-02T04:04:37.943Z,97.98
2023-03-02T04:07:10.024Z,97.99
2023-03-02T04:09:39.410Z,98.17
2023-03-02T04:12:11.730Z,98.08
2023-03-02T04:14:42.396Z,98.22
2023-03-02T04:17:10.283Z,98.42
2023-03-02T04:19:42.338Z,98.53
2023-03-02T04:22:10.722Z,99.07
2023-03-02T04:24:38.655Z,99.65
2023-03-02T04:27:06.663Z,100.00
2023-03-02T04:29:37.003Z,100.00
2023-03-02T04:32:07.433Z,100.00
2023-03-02T04:34:37.744Z,100.00
2023-03-02T04:37:05.990Z,100.00
2023-03-02T04:39:34.219Z,100.00
2023-03-02T04:42:02.278Z,100.00
2023-03-02T04:44:30.280Z,100.00
2023-03-02T04:46:58.359Z,100.00
2023-03-02T04:49:26.390Z,100.00
2023-03-02T04:51:54.563Z,100.00
2023-03-02T04:54:26.923Z,100.00
2023-03-02T04:56:55.806Z,100.00
2023-03-02T04:59:27.258Z,100.00
2023-03-02T05:01:58.974Z,100.00
2023-03-02T05:04:28.719Z,100.00
2023-03-02T05:06:57.837Z,100.00
2023-03-02T05:09:31.057Z,100.00
2023-03-02T05:12:01.390Z,100.00
2023-03-02T05:14:30.247Z,100.00
2023-03-02T05:16:58.817Z,100.00
2023-03-02T05:19:26.798Z,100.00
2023-03-02T05:21:56.577Z,100.00
2023-03-02T05:24:24.991Z,100.00
2023-03-02T05:26:52.944Z,100.00
2023-03-02T05:29:20.900Z,100.00
2023-03-02T05:31:49.773Z,100.00
2023-03-02T05:34:18.255Z,100.00
2023-03-02T05:36:46.594Z,100.00
2023-03-02T05:39:14.580Z,100.00
2023-03-02T05:41:42.465Z,100.00
2023-03-02T05:44:12.193Z,100.00
2023-03-02T05:46:40.728Z,100.00
2023-03-02T05:49:08.842Z,100.00
2023-03-02T05:51:36.678Z,100.00
2023-03-02T05:54:04.691Z,100.00
2023-03-02T05:56:33.182Z,100.00
2023-03-02T05:59:01.470Z,100.00
2023-03-02T06:01:29.338Z,100.00
2023-03-02T06:03:57.208Z,100.00
2023-03-02T06:06:25.225Z,100.00
2023-03-02T06:08:53.075Z,100.00
2023-03-02T06:11:21.096Z,100.00
2023-03-02T06:13:49.071Z,100.00
2023-03-02T06:16:17.142Z,100.00
2023-03-02T06:18:44.920Z,100.00
2023-03-02T06:21:13.111Z,100.00
2023-03-02T06:23:41.050Z,100.00
2023-03-02T06:26:10.882Z,100.00
2023-03-02T06:28:51.503Z,100.00
2023-03-02T06:31:21.872Z,100.00
2023-03-02T06:33:50.244Z,100.00
2023-03-02T06:36:18.442Z,100.00
2023-03-02T06:38:46.564Z,100.00
2023-03-02T06:41:14.804Z,100.00
2023-03-02T06:43:43.013Z,100.00
2023-03-02T06:46:11.956Z,100.00
2023-03-02T06:48:40.046Z,100.00
2023-03-02T06:51:08.608Z,100.00
2023-03-02T06:53:36.751Z,100.00
2023-03-02T06:56:05.255Z,100.00
2023-03-02T06:58:33.289Z,100.00
2023-03-02T07:01:01.451Z,100.00
2023-03-02T07:03:29.641Z,100.00
2023-03-02T07:05:57.732Z,100.00
2023-03-02T07:08:26.101Z,100.00
2023-03-02T07:10:54.045Z,100.00
2023-03-02T07:13:22.080Z,100.00
2023-03-02T07:15:49.851Z,100.00
2023-03-02T07:18:17.750Z,100.00
2023-03-02T07:20:45.672Z,100.00
2023-03-02T07:23:13.568Z,100.00
2023-03-02T07:25:41.587Z,100.00
2023-03-02T07:28:09.523Z,100.00
2023-03-02T07:30:37.597Z,100.00
2023-03-02T07:33:05.533Z,100.00
2023-03-02T07:35:33.487Z,100.00
2023-03-02T07:38:01.461Z,100.00
2023-03-02T07:40:29.399Z,100.00
2023-03-02T07:42:57.543Z,100.00
2023-03-02T07:45:26.431Z,100.00
2023-03-02T07:47:54.330Z,100.00
2023-03-02T07:50:22.401Z,100.00
2023-03-02T07:52:50.233Z,100.00
2023-03-02T07:55:18.072Z,100.00
2023-03-02T07:57:46.001Z,100.00
2023-03-02T08:00:14.812Z,100.00
2023-03-02T08:02:43.173Z,100.00
2023-03-02T08:05:12.214Z,100.00
2023-03-02T08:07:41.054Z,100.00
2023-03-02T08:10:10.621Z,100.00
2023-03-02T08:12:38.520Z,100.00
2023-03-02T08:15:07.300Z,100.00
2023-03-02T08:17:35.362Z,100.00
2023-03-02T08:20:04.707Z,100.00
2023-03-02T08:22:32.606Z,100.00
2023-03-02T08:25:00.557Z,100.00
2023-03-02T08:27:28.611Z,100.00
2023-03-02T08:29:56.985Z,100.00
2023-03-02T08:32:25.209Z,100.00
2023-03-02T08:34:53.204Z,100.00
2023-03-02T08:37:21.197Z,100.00
2023-03-02T08:39:49.607Z,100.00
2023-03-02T08:42:17.925Z,100.00
2023-03-02T08:44:45.895Z,100.00
2023-03-02T08:47:13.817Z,100.00
2023-03-02T08:49:41.865Z,100.00
2023-03-02T08:52:09.893Z,100.00
2023-03-02T08:54:40.708Z,100.00
2023-03-02T08:57:11.605Z,100.00
2023-03-02T08:59:40.065Z,100.00
2023-03-02T09:02:11.003Z,100.00
2023-03-02T09:04:39.395Z,100.00
2023-03-02T09:07:07.523Z,100.00
2023-03-02T09:09:35.657Z,100.00
2023-03-02T09:12:03.939Z,100.00
2023-03-02T09:14:31.768Z,100.00
2023-03-02T09:16:59.817Z,100.00
2023-03-02T09:19:27.906Z,100.00
2023-03-02T09:21:55.839Z,100.00
2023-03-02T09:24:23.859Z,100.00
2023-03-02T09:26:51.905Z,100.00
2023-03-02T09:29:19.911Z,100.00
2023-03-02T09:31:47.826Z,100.00
2023-03-02T09:34:15.812Z,100.00
2023-03-02T09:36:43.613Z,100.00
2023-03-02T09:39:12.587Z,100.00
2023-03-02T09:41:49.878Z,100.00
2023-03-02T09:44:38.652Z,100.00
2023-03-02T09:47:36.045Z,100.00
2023-03-02T09:50:16.071Z,100.00
2023-03-02T09:52:52.389Z,100.00
2023-03-02T09:55:26.011Z,100.00
2023-03-02T09:57:56.189Z,100.00
2023-03-02T10:00:28.542Z,100.00
2023-03-02T10:03:16.619Z,100.00
2023-03-02T10:05:51.362Z,100.00
2023-03-02T10:08:26.781Z,100.00
2023-03-02T10:10:58.122Z,100.00
2023-03-02T10:13:36.260Z,100.00
2023-03-02T10:16:13.071Z,100.00
2023-03-02T10:18:49.796Z,100.00
2023-03-02T10:21:27.072Z,100.00
2023-03-02T10:24:11.459Z,100.00
2023-03-02T10:26:44.831Z,100.00
2023-03-02T10:29:27.954Z,100.00
2023-03-02T10:32:21.500Z,100.00
2023-03-02T10:34:51.358Z,100.00
2023-03-02T10:37:28.536Z,100.00
2023-03-02T10:39:56.782Z,100.00
2023-03-02T10:42:32.633Z,100.00
2023-03-02T10:45:24.020Z,100.00
2023-03-02T10:48:06.869Z,100.00
2023-03-02T10:50:35.346Z,100.00
2023-03-02T10:53:06.308Z,100.00
2023-03-02T10:55:35.016Z,100.00
2023-03-02T10:58:07.265Z,100.00
2023-03-02T11:00:36.785Z,100.00
2023-03-02T11:03:20.285Z,100.00
2023-03-02T11:05:49.263Z,100.00
2023-03-02T11:08:18.405Z,100.00
2023-03-02T11:10:59.766Z,100.00
2023-03-02T11:13:38.698Z,100.00
2023-03-02T11:16:19.218Z,100.00
2023-03-02T11:18:55.511Z,100.00
2023-03-02T11:21:44.224Z,100.00
2023-03-02T11:24:21.485Z,100.00
2023-03-02T11:26:54.388Z,100.00
2023-03-02T11:29:35.633Z,100.00
2023-03-02T11:32:27.487Z,100.00
2023-03-02T11:35:02.966Z,100.00
2023-03-02T11:37:48.166Z,100.00
2023-03-02T11:40:24.852Z,100.00
2023-03-02T11:42:56.775Z,100.00
2023-03-02T11:45:28.492Z,100.00
2023-03-02T11:48:26.619Z,100.00
2023-03-02T11:50:57.922Z,100.00
2023-03-02T11:53:34.026Z,100.00
2023-03-02T11:56:02.071Z,100.00
2023-03-02T11:58:32.882Z,100.00
2023-03-02T12:01:02.032Z,100.00
2023-03-02T12:03:32.772Z,100.00
2023-03-02T12:06:05.245Z,100.00
2023-03-02T12:08:38.720Z,100.00
2023-03-02T12:11:06.601Z,100.00
2023-03-02T12:13:38.659Z,100.00
2023-03-02T12:16:35.853Z,100.00
2023-03-02T12:19:16.493Z,100.00
2023-03-02T12:21:56.995Z,100.00
2023-03-02T12:24:26.366Z,100.00
2023-03-02T12:27:25.807Z,100.00
2023-03-02T12:30:11.279Z,100.00
2023-03-02T12:32:39.401Z,100.00
2023-03-02T12:35:07.372Z,100.00
2023-03-02T12:38:05.462Z,100.00
2023-03-02T12:40:51.862Z,100.00
2023-03-02T12:44:06.228Z,100.00
2023-03-02T12:46:37.359Z,100.00
2023-03-02T12:49:20.251Z,100.00
2023-03-02T12:52:04.017Z,100.00
2023-03-02T12:54:34.589Z,100.00
2023-03-02T12:57:14.080Z,100.00
2023-03-02T12:59:42.946Z,100.00
2023-03-02T13:02:23.272Z,100.00
2023-03-02T13:04:55.491Z,100.00
2023-03-02T13:07:28.843Z,100.00
2023-03-02T13:09:58.857Z,100.00
2023-03-02T13:12:29.408Z,100.00
2023-03-02T13:14:59.153Z,100.00
2023-03-02T13:17:31.271Z,100.00
2023-03-02T13:20:01.721Z,100.00
2023-03-02T13:22:30.256Z,100.00
2023-03-02T13:25:02.158Z,100.00
2023-03-02T13:27:31.892Z,100.00
2023-03-02T13:30:23.883Z,100.00
2023-03-02T13:32:54.545Z,100.00
2023-03-02T13:35:26.726Z,100.00
2023-03-02T13:38:04.916Z,100.00
2023-03-02T13:40:47.789Z,100.00
2023-03-02T13:43:31.205Z,100.00
2023-03-02T13:46:00.470Z,100.00
2023-03-02T13:48:29.918Z,100.00
2023-03-02T13:51:01.585Z,100.00
2023-03-02T13:53:34.757Z,100.00
2023-03-02T13:56:03.932Z,100.00
2023-03-02T13:58:38.480Z,100.00
2023-03-02T14:01:07.718Z,100.00
2023-03-02T14:03:35.656Z,100.00
2023-03-02T14:06:03.572Z,100.00
2023-03-02T14:08:32.128Z,100.00
2023-03-02T14:11:02.639Z,100.00
2023-03-02T14:13:51.695Z,100.00
2023-03-02T14:16:20.177Z,100.00
2023-03-02T14:18:51.110Z,100.00
2023-03-02T14:21:24.382Z,100.00
2023-03-02T14:23:54.018Z,100.00
2023-03-02T14:26:54.423Z,100.00
2023-03-02T14:29:34.684Z,100.00
2023-03-02T14:32:04.436Z,100.00
2023-03-02T14:34:36.047Z,100.00
2023-03-02T14:37:10.718Z,100.00
2023-03-02T14:39:46.414Z,100.00
2023-03-02T14:42:17.029Z,100.00
2023-03-02T14:44:48.923Z,100.00
2023-03-02T14:47:19.529Z,100.00
2023-03-02T14:49:49.461Z,100.00
2023-03-02T14:52:28.331Z,100.00
2023-03-02T14:54:59.686Z,100.00
2023-03-02T14:57:30.447Z,100.00
2023-03-02T15:00:01.343Z,100.00
2023-03-02T15:02:29.383Z,100.00
2023-03-02T15:04:57.849Z,100.00
2023-03-02T15:07:28.098Z,100.00
2023-03-02T15:09:58.058Z,100.00
2023-03-02T15:12:26.427Z,100.00
2023-03-02T15:14:54.353Z,100.00
2023-03-02T15:17:22.276Z,100.00
2023-03-02T15:19:50.493Z,100.00
2023-03-02T15:22:18.505Z,100.00
2023-03-02T15:24:46.600Z,100.00
2023-03-02T15:27:14.624Z,100.00
2023-03-02T15:29:44.949Z,100.00
2023-03-02T15:32:13.090Z,100.00
2023-03-02T15:34:41.068Z,100.00
2023-03-02T15:37:11.671Z,100.00
2023-03-02T15:39:40.343Z,100.00
2023-03-02T15:42:08.260Z,100.00
2023-03-02T15:44:36.360Z,100.00
2023-03-02T15:47:04.477Z,100.00
2023-03-02T15:49:32.969Z,100.00
2023-03-02T15:52:00.983Z,100.00
2023-03-02T15:54:29.521Z,100.00
2023-03-02T15:56:57.606Z,100.00
2023-03-02T15:59:27.719Z,100.00
2023-03-02T16:01:59.820Z,100.00
2023-03-02T16:04:30.402Z,100.00
2023-03-02T16:06:58.903Z,100.00
2023-03-02T16:09:29.095Z,100.00
2023-03-02T16:11:57.688Z,100.00
2023-03-02T16:14:26.062Z,100.00
2023-03-02T16:16:54.089Z,100.00
2023-03-02T16:19:22.095Z,100.00
2023-03-02T16:21:50.105Z,100.00
2023-03-02T16:24:18.240Z,100.00
2023-03-02T16:26:46.280Z,100.00
2023-03-02T16:29:14.602Z,100.00
2023-03-02T16:31:46.169Z,100.00
2023-03-02T16:34:14.662Z,100.00
2023-03-02T16:36:42.992Z,100.00
2023-03-02T16:39:12.117Z,100.00
2023-03-02T16:41:43.196Z,100.00
2023-03-02T16:44:13.486Z,100.00
2023-03-02T16:46:43.708Z,100.00
2023-03-02T16:49:13.526Z,100.00
2023-03-02T16:51:42.071Z,100.00
2023-03-02T16:54:14.484Z,100.00
2023-03-02T16:56:45.370Z,100.00
2023-03-02T16:59:13.480Z,100.00
2023-03-02T17:01:41.537Z,100.00
2023-03-02T17:04:09.791Z,100.00
2023-03-02T17:06:38.919Z,100.00
2023-03-02T17:09:06.999Z,100.00
2023-03-02T17:11:35.053Z,100.00
2023-03-02T17:14:02.960Z,100.00
2023-03-02T17:16:30.969Z,100.00
2023-03-02T17:18:59.930Z,100.00
2023-03-02T17:21:27.862Z,100.00
2023-03-02T17:23:55.893Z,100.00
2023-03-02T17:26:23.746Z,100.00
2023-03-02T17:28:51.632Z,100.00
2023-03-02T17:31:19.468Z,100.00
2023-03-02T17:33:47.485Z,100.00
2023-03-02T17:36:15.871Z,100.00
2023-03-02T17:38:43.920Z,100.00
2023-03-02T17:41:12.088Z,100.00
2023-03-02T17:43:41.881Z,100.00
2023-03-02T17:46:14.765Z,100.00
2023-03-02T17:48:43.266Z,100.00
2023-03-02T17:51:11.911Z,100.00
2023-03-02T17:53:39.842Z,100.00
2023-03-02T17:56:07.949Z,100.00
2023-03-02T17:58:44.648Z,100.00
2023-03-02T18:01:15.991Z,100.00
2023-03-02T18:03:45.224Z,100.00
2023-03-02T18:06:14.741Z,100.00
2023-03-02T18:08:42.685Z,100.00
2023-03-02T18:11:10.717Z,100.00
2023-03-02T18:13:40.222Z,100.00
2023-03-02T18:16:08.878Z,100.00
2023-03-02T18:18:36.985Z,100.00
2023-03-02T18:21:05.946Z,100.00
2023-03-02T18:23:34.090Z,100.00
2023-03-02T18:26:02.150Z,100.00
2023-03-02T18:28:30.187Z,100.00
2023-03-02T18:30:58.092Z,100.00
2023-03-02T18:33:26.539Z,100.00
2023-03-02T18:35:54.557Z,100.00
2023-03-02T18:38:22.781Z,100.00
2023-03-02T18:40:50.678Z,100.00
2023-03-02T18:43:18.714Z,100.00
2023-03-02T18:45:46.702Z,100.00
2023-03-02T18:48:14.562Z,100.00
2023-03-02T18:50:43.747Z,100.00
2023-03-02T18:53:12.932Z,100.00
2023-03-02T18:55:41.380Z,100.00
2023-03-02T18:58:17.060Z,100.00
2023-03-02T19:00:46.341Z,100.00
2023-03-02T19:03:16.813Z,100.00
2023-03-02T19:05:45.498Z,100.00
2023-03-02T19:08:13.418Z,100.00
2023-03-02T19:10:42.446Z,100.00
2023-03-02T19:13:11.761Z,100.00
2023-03-02T19:15:40.475Z,100.00
2023-03-02T19:18:09.819Z,100.00
2023-03-02T19:20:37.697Z,100.00
2023-03-02T19:23:05.590Z,100.00
2023-03-02T19:25:34.006Z,100.00
2023-03-02T19:28:02.253Z,100.00
2023-03-02T19:30:30.360Z,100.00
2023-03-02T19:32:58.266Z,100.00
2023-03-02T19:35:27.848Z,100.00
2023-03-02T19:37:56.492Z,100.00
2023-03-02T19:40:27.182Z,100.00
2023-03-02T19:42:57.131Z,100.00
2023-03-02T19:45:29.385Z,100.00
2023-03-02T19:47:58.406Z,100.00
2023-03-02T19:50:27.966Z,100.00
2023-03-02T19:52:57.150Z,100.00
2023-03-02T19:55:25.845Z,100.00
2023-03-02T19:58:00.202Z,100.00
2023-03-02T20:00:30.749Z,100.00
2023-03-02T20:02:59.227Z,100.00
2023-03-02T20:05:27.945Z,100.00
2023-03-02T20:07:56.022Z,100.00
2023-03-02T20:10:37.424Z,100.00
2023-03-02T20:13:06.465Z,100.00
2023-03-02T20:15:38.690Z,100.00
2023-03-02T20:18:09.472Z,100.00
2023-03-02T20:20:37.605Z,100.00
2023-03-02T20:23:05.537Z,100.00
2023-03-02T20:25:34.844Z,100.00
2023-03-02T20:28:05.672Z,100.00
2023-03-02T20:30:38.038Z,100.00
2023-03-02T20:33:07.684Z,100.00
2023-03-02T20:35:40.144Z,100.00
2023-03-02T20:38:13.188Z,100.00
2023-03-02T20:40:41.641Z,100.00
2023-03-02T20:43:09.488Z,100.00
2023-03-02T20:45:37.489Z,100.00
2023-03-02T20:48:05.594Z,100.00
2023-03-02T20:50:35.237Z,100.00
2023-03-02T20:53:05.570Z,100.00
2023-03-02T20:55:34.481Z,100.00
2023-03-02T20:58:02.822Z,100.00
2023-03-02T21:00:32.998Z,100.00
2023-03-02T21:03:00.876Z,100.00
2023-03-02T21:05:30.907Z,100.00
2023-03-02T21:07:59.536Z,100.00
2023-03-02T21:10:32.176Z,100.00
2023-03-02T21:13:00.324Z,100.00
2023-03-02T21:15:28.925Z,100.00
2023-03-02T21:17:59.396Z,100.00
2023-03-02T21:20:32.060Z,100.00
2023-03-02T21:22:59.884Z,100.00
2023-03-02T21:25:28.371Z,100.00
2023-03-02T21:27:56.868Z,100.00
2023-03-02T21:30:29.376Z,100.00
2023-03-02T21:32:57.657Z,100.00
2023-03-02T21:35:25.959Z,100.00
2023-03-02T21:37:58.087Z,100.00
2023-03-02T21:40:31.898Z,100.00
2023-03-02T21:43:01.860Z,100.00
2023-03-02T21:45:29.793Z,100.00
2023-03-02T21:47:57.842Z,100.00
2023-03-02T21:50:29.616Z,100.00
2023-03-02T21:53:01.341Z,100.00
2023-03-02T21:55:30.913Z,100.00
2023-03-02T21:57:59.313Z,100.00
2023-03-02T22:00:37.502Z,100.00
2023-03-02T22:03:06.650Z,100.00
2023-03-02T22:05:34.517Z,100.00
2023-03-02T22:08:02.592Z,100.00
2023-03-02T22:10:32.654Z,100.00
2023-03-02T22:13:17.729Z,100.00
2023-03-02T22:15:47.706Z,100.00
2023-03-02T22:18:19.484Z,100.00
2023-03-02T22:20:50.096Z,100.00
2023-03-02T22:23:21.286Z,100.00
2023-03-02T22:26:14.718Z,100.00
2023-03-02T22:28:43.129Z,100.00
2023-03-02T22:31:20.169Z,100.00
2023-03-02T22:33:49.676Z,100.00
2023-03-02T22:36:23.503Z,100.00
2023-03-02T22:38:51.744Z,100.00
2023-03-02T22:41:20.519Z,100.00
2023-03-02T22:43:49.628Z,100.00
2023-03-02T22:46:20.721Z,100.00
2023-03-02T22:48:52.839Z,100.00
2023-03-02T22:51:28.015Z,100.00
2023-03-02T22:53:58.941Z,100.00
2023-03-02T22:56:29.662Z,100.00
2023-03-02T22:59:21.899Z,100.00
2023-03-02T23:01:50.566Z,100.00
2023-03-02T23:04:18.632Z,100.00
2023-03-02T23:06:50.349Z,100.00
2023-03-02T23:09:24.957Z,100.00
2023-03-02T23:11:56.600Z,100.00
2023-03-02T23:14:24.928Z,100.00
2023-03-02T23:16:58.370Z,100.00
2023-03-02T23:19:30.837Z,100.00
2023-03-02T23:21:58.836Z,100.00
2023-03-02T23:24:27.347Z,100.00
2023-03-02T23:26:55.512Z,100.00
2023-03-02T23:29:23.594Z,100.00
2023-03-02T23:31:51.761Z,100.00
2023-03-02T23:34:20.446Z,100.00
2023-03-02T23:36:48.407Z,100.00
2023-03-02T23:39:17.624Z,100.00
2023-03-02T23:41:45.700Z,100.00
2023-03-02T23:44:13.598Z,100.00
2023-03-02T23:46:41.500Z,100.00
2023-03-02T23:49:09.521Z,100.00
2023-03-02T23:51:37.466Z,100.00
2023-03-02T23:54:05.277Z,100.00
2023-03-02T23:56:33.243Z,100.00
2023-03-02T23:59:02.451Z,100.00
